ブラジリア の空港の天気 - METARとTAF

ブラジリア国際空港 ( SBBR / BSB ) - ブラジル ブラジリア
飛行場実況気象(Metar)
観測時間10/15 14:00 BRT (10/15 17:00 UTC)
風向・風速北 3m/s
視程10km以上
天気現象
なし
気温34℃
湿度19%
気圧1017hPa
METARSBBR 151700Z VRB05KT CAVOK 34/07 Q1017
過去の天気等 Google飛行場航空写真 Wunderground天気予報

過去48時間のMETAR

飛行場予報(TAF)
発表時間: 10/15 07:00 BRT (10/15 10:00 UTC)
予報対象時間: 15日9時 BRT ~ 16日9時 BRT
風向・風速東北東 5m/s
視程10km以上
少しの雲 雲底高度 1220m
15日15時 BRT ~ 15日19時 BRT に 確率 30% で一時的に
風向・風速東 4m/s
少しの雲 雲底高度 1370m
少しの塔状積雲 雲底高度 1430m
15日21時 BRT ~ 15日23時 BRT に徐々に
風向・風速静穏
視程10km以上
なし
16日6時 BRT ~ 16日8時 BRT に徐々に
風向・風速東北東 5m/s
TAF SBBR 151000Z 1512/1612 06010KT 9999 FEW040 TX33/1517Z TN17/1609Z
PROB30 TEMPO 1518/1522 09008KT FEW045 FEW047TCU
BECMG 1600/1602 00000KT CAVOK
BECMG 1609/1611 06010KT RMK PFY